Time;durP1;ratioP1;P1;durP2;ratioP2;P2;SDS_P1;SDS_P2;PMS_P1;PMS_P2;Temp;Humidity;BMP_temperature;BMP_pressure;BME280_temperature;BME280_humidity;BME280_pressure;Samples;Min_cycle;Max_cycle;Signal;HPM_P1;HPM_P2
2022/07/07 00:02:24;;;;;;;1.67;1.42;;;15.10;99.90;;;;;;5035749;28;20204;-81
2022/07/07 00:04:50;;;;;;;1.63;1.40;;;15.10;99.90;;;;;;5053184;28;20540;-80
2022/07/07 00:07:16;;;;;;;1.30;1.20;;;15.00;99.90;;;;;;5035738;28;20249;-81
2022/07/07 00:09:41;;;;;;;4.35;1.55;;;15.00;99.90;;;;;;5053234;28;20691;-80
2022/07/07 00:12:07;;;;;;;2.55;2.17;;;15.00;99.90;;;;;;5035334;28;20245;-80
2022/07/07 00:14:33;;;;;;;1.52;1.38;;;14.90;99.90;;;;;;5053200;28;20200;-81
2022/07/07 00:16:59;;;;;;;2.05;1.60;;;14.90;99.90;;;;;;5053037;28;20175;-80
2022/07/07 00:19:25;;;;;;;2.60;1.98;;;14.90;99.90;;;;;;5053084;28;20210;-81
2022/07/07 00:21:51;;;;;;;2.92;1.55;;;14.80;99.90;;;;;;5053345;28;20184;-81
2022/07/07 00:24:17;;;;;;;3.22;1.38;;;14.70;99.90;;;;;;5035185;28;20761;-80
2022/07/07 00:26:42;;;;;;;1.70;1.48;;;14.70;99.90;;;;;;5052739;28;20263;-80
2022/07/07 00:29:08;;;;;;;1.98;1.33;;;14.70;99.90;;;;;;5053737;28;20237;-82
2022/07/07 00:31:34;;;;;;;1.77;1.23;;;14.60;99.90;;;;;;5053499;28;20176;-81
2022/07/07 00:33:59;;;;;;;1.63;1.52;;;14.60;99.90;;;;;;5053156;28;20176;-81
2022/07/07 00:36:25;;;;;;;2.05;1.70;;;14.50;99.90;;;;;;5053496;28;20288;-81
2022/07/07 00:38:50;;;;;;;1.73;1.60;;;14.50;99.90;;;;;;5052995;28;20211;-82
2022/07/07 00:41:16;;;;;;;1.73;1.50;;;14.50;99.90;;;;;;5035882;28;20691;-81
2022/07/07 00:43:43;;;;;;;2.30;1.58;;;14.40;99.90;;;;;;5052645;28;20183;-81
2022/07/07 00:46:12;;;;;;;1.83;1.73;;;14.40;99.90;;;;;;5052874;28;20180;-81
2022/07/07 00:48:40;;;;;;;2.38;1.55;;;14.40;99.90;;;;;;5052819;28;20235;-81
2022/07/07 00:51:08;;;;;;;3.40;1.80;;;14.40;99.90;;;;;;5052374;28;20510;-81
2022/07/07 00:53:34;;;;;;;2.08;1.88;;;14.40;99.90;;;;;;5052796;28;20664;-81
2022/07/07 00:56:00;;;;;;;2.70;1.67;;;14.40;99.90;;;;;;5034704;28;20184;-81
2022/07/07 00:58:25;;;;;;;3.15;1.88;;;14.30;99.90;;;;;;5052422;28;20616;-82
2022/07/07 01:00:51;;;;;;;2.70;1.90;;;14.20;99.90;;;;;;5052192;28;20696;-82
2022/07/07 01:03:17;;;;;;;2.38;1.80;;;14.20;99.90;;;;;;5034718;28;20230;-82
2022/07/07 01:05:46;;;;;;;5.60;1.92;;;14.10;99.90;;;;;;5052531;28;20534;-81
2022/07/07 01:08:15;;;;;;;1.73;1.50;;;14.10;99.90;;;;;;5052482;28;20213;-81
2022/07/07 01:10:41;;;;;;;2.58;2.20;;;14.10;99.90;;;;;;5051468;28;20513;-81
2022/07/07 01:13:07;;;;;;;2.10;1.85;;;14.10;99.90;;;;;;5051120;28;20180;-81
2022/07/07 01:15:33;;;;;;;2.00;1.80;;;14.00;99.90;;;;;;5052906;28;20625;-81
2022/07/07 01:17:58;;;;;;;2.15;2.00;;;14.00;99.90;;;;;;5053120;28;20208;-81
2022/07/07 01:20:25;;;;;;;4.32;2.30;;;14.00;99.90;;;;;;5052872;28;20621;-81
2022/07/07 01:22:52;;;;;;;2.85;1.75;;;13.90;99.90;;;;;;5054801;28;20314;-81
2022/07/07 01:25:18;;;;;;;2.65;2.08;;;13.90;99.90;;;;;;5054574;28;20246;-81
2022/07/07 01:27:44;;;;;;;2.67;1.80;;;13.80;99.90;;;;;;5055983;28;20275;-81
2022/07/07 01:30:10;;;;;;;1.67;1.50;;;13.90;99.90;;;;;;5054467;28;20254;-80
2022/07/07 01:32:36;;;;;;;3.78;1.63;;;13.80;99.90;;;;;;5055734;28;20546;-81
2022/07/07 01:35:02;;;;;;;2.10;1.95;;;13.80;99.90;;;;;;5054681;28;20274;-80
2022/07/07 01:37:28;;;;;;;3.10;2.10;;;13.80;99.90;;;;;;5056584;28;20263;-82
2022/07/07 01:39:54;;;;;;;2.88;2.28;;;13.80;99.90;;;;;;5057269;28;20270;-80
2022/07/07 01:42:20;;;;;;;2.42;2.13;;;13.70;99.90;;;;;;5055302;28;20206;-82
2022/07/07 01:44:45;;;;;;;3.35;2.13;;;13.70;99.90;;;;;;5037828;28;20179;-81
2022/07/07 01:47:12;;;;;;;2.42;2.22;;;13.60;99.90;;;;;;5037866;28;20184;-81
2022/07/07 01:49:39;;;;;;;1.67;1.58;;;13.60;99.90;;;;;;5055303;28;20591;-81
2022/07/07 01:52:06;;;;;;;3.83;2.38;;;13.60;99.90;;;;;;5055599;28;20172;-81
2022/07/07 01:54:33;;;;;;;2.63;2.15;;;13.60;99.90;;;;;;5055490;28;20254;-81
2022/07/07 01:56:59;;;;;;;5.15;3.67;;;13.60;99.90;;;;;;5037726;28;20183;-83
2022/07/07 01:59:25;;;;;;;2.28;1.85;;;13.50;99.90;;;;;;5055383;28;20231;-81
2022/07/07 02:01:50;;;;;;;2.75;2.25;;;13.60;99.90;;;;;;5054200;28;20538;-81
2022/07/07 02:04:16;;;;;;;1.63;1.52;;;13.60;99.90;;;;;;5054889;28;20742;-81
2022/07/07 02:06:42;;;;;;;2.72;2.10;;;13.70;99.90;;;;;;5055417;28;20171;-82
2022/07/07 02:09:08;;;;;;;2.30;2.10;;;13.70;99.90;;;;;;5037282;28;20254;-82
2022/07/07 02:11:35;;;;;;;2.17;2.08;;;13.70;99.90;;;;;;5055224;28;20233;-83
2022/07/07 02:14:01;;;;;;;2.55;2.03;;;13.70;99.90;;;;;;5054962;28;20176;-85
2022/07/07 02:16:27;;;;;;;2.25;2.05;;;13.80;99.90;;;;;;5037291;28;20183;-81
2022/07/07 02:18:56;;;;;;;2.05;1.70;;;13.80;99.90;;;;;;5054659;28;20661;-82
2022/07/07 02:21:22;;;;;;;2.42;2.08;;;13.80;99.90;;;;;;5053479;28;20217;-81
2022/07/07 02:23:49;;;;;;;2.63;2.00;;;13.80;99.90;;;;;;5054938;28;20687;-81
2022/07/07 02:26:15;;;;;;;1.80;1.67;;;13.80;99.90;;;;;;5054426;28;20565;-81
2022/07/07 02:28:41;;;;;;;2.90;2.63;;;13.80;99.90;;;;;;5054872;28;20187;-82
2022/07/07 02:31:08;;;;;;;3.35;2.15;;;13.90;99.90;;;;;;5054511;28;20625;-82
2022/07/07 02:33:33;;;;;;;2.97;2.10;;;13.90;99.90;;;;;;5055508;28;20204;-81
2022/07/07 02:35:59;;;;;;;2.85;2.10;;;13.90;99.90;;;;;;5048475;28;20183;-81
2022/07/07 02:38:25;;;;;;;2.22;2.03;;;13.90;99.90;;;;;;5066496;28;20211;-81
2022/07/07 02:40:52;;;;;;;2.10;1.90;;;13.90;99.90;;;;;;5066343;28;20182;-82
2022/07/07 02:43:18;;;;;;;3.35;2.15;;;13.90;99.90;;;;;;5047511;28;20186;-81
2022/07/07 02:45:47;;;;;;;4.80;2.97;;;13.90;99.90;;;;;;5062021;28;20176;-83
2022/07/07 02:48:15;;;;;;;5.22;3.10;;;13.90;99.90;;;;;;5054846;28;20302;-83
2022/07/07 02:50:40;;;;;;;4.38;2.72;;;13.80;99.90;;;;;;5053733;28;20550;-83
2022/07/07 02:53:08;;;;;;;2.90;2.38;;;13.80;99.90;;;;;;5054298;28;20259;-85
2022/07/07 02:55:34;;;;;;;3.38;2.40;;;13.70;99.90;;;;;;5053044;28;20287;-83
2022/07/07 02:58:01;;;;;;;3.17;2.25;;;13.70;99.90;;;;;;5053960;28;20235;-83
2022/07/07 03:00:27;;;;;;;6.75;2.65;;;13.60;99.90;;;;;;5036695;28;20517;-82
2022/07/07 03:02:54;;;;;;;2.63;2.35;;;13.50;99.90;;;;;;5053100;28;20176;-83
2022/07/07 03:05:21;;;;;;;3.45;2.47;;;13.50;99.90;;;;;;5052717;28;20641;-82
2022/07/07 03:07:47;;;;;;;4.57;2.50;;;13.40;99.90;;;;;;5053844;28;20182;-82
2022/07/07 03:10:13;;;;;;;3.00;2.40;;;13.40;99.90;;;;;;5053900;28;20164;-83
2022/07/07 03:12:39;;;;;;;2.95;2.40;;;13.40;99.90;;;;;;5053951;28;20201;-82
2022/07/07 03:15:05;;;;;;;2.58;2.38;;;13.40;99.90;;;;;;5053981;28;20175;-83
2022/07/07 03:17:31;;;;;;;3.38;2.63;;;13.40;99.90;;;;;;5036118;28;20660;-83
2022/07/07 03:19:57;;;;;;;3.92;2.55;;;13.40;99.90;;;;;;5052679;28;20184;-83
2022/07/07 03:22:22;;;;;;;4.05;3.28;;;13.40;99.90;;;;;;5053342;28;20291;-83
2022/07/07 03:24:48;;;;;;;3.25;2.85;;;13.40;99.90;;;;;;5053991;28;20187;-83
2022/07/07 03:27:13;;;;;;;3.70;3.00;;;13.50;99.90;;;;;;5053758;28;20687;-84
2022/07/07 03:29:39;;;;;;;7.50;3.22;;;13.50;99.90;;;;;;5053884;28;20182;-83
2022/07/07 03:32:05;;;;;;;3.28;2.70;;;13.50;99.90;;;;;;5058991;28;20665;-83
2022/07/07 03:34:31;;;;;;;2.55;2.00;;;13.60;99.90;;;;;;5041129;28;20188;-83
2022/07/07 03:36:56;;;;;;;3.60;2.45;;;13.70;99.90;;;;;;5064528;28;20214;-83
2022/07/07 03:39:22;;;;;;;2.92;2.00;;;13.80;99.90;;;;;;5063955;28;20696;-83
2022/07/07 03:41:48;;;;;;;3.78;2.90;;;13.80;99.90;;;;;;5064444;28;20165;-82
2022/07/07 03:44:14;;;;;;;2.90;2.63;;;13.90;99.90;;;;;;5074972;28;20175;-85
2022/07/07 03:46:39;;;;;;;3.92;2.63;;;14.00;99.90;;;;;;5077511;28;20183;-83
2022/07/07 03:49:05;;;;;;;3.10;2.60;;;14.00;99.90;;;;;;5046632;28;20172;-83
2022/07/07 03:51:31;;;;;;;3.63;2.88;;;14.00;99.90;;;;;;5040113;28;20188;-83
2022/07/07 03:53:57;;;;;;;4.55;3.00;;;13.90;99.90;;;;;;5038792;28;20184;-82
2022/07/07 03:56:22;;;;;;;5.05;2.67;;;13.90;99.90;;;;;;5060752;28;20172;-82
2022/07/07 03:58:48;;;;;;;3.00;2.70;;;13.90;99.90;;;;;;5042855;28;20235;-85
2022/07/07 04:01:13;;;;;;;3.88;2.10;;;13.80;99.90;;;;;;5057198;28;20252;-85
2022/07/07 04:03:39;;;;;;;3.97;3.00;;;13.80;99.90;;;;;;5046752;28;20583;-84
2022/07/07 04:06:06;;;;;;;4.00;2.72;;;13.80;99.90;;;;;;5048574;28;20185;-82
2022/07/07 04:08:31;;;;;;;3.13;2.42;;;13.80;99.90;;;;;;5038829;28;20279;-82
2022/07/07 04:10:57;;;;;;;3.20;2.60;;;13.80;99.90;;;;;;5051332;28;20255;-81
2022/07/07 04:13:23;;;;;;;2.88;2.53;;;13.80;99.90;;;;;;5043134;28;20185;-81
2022/07/07 04:15:48;;;;;;;2.72;2.53;;;13.90;99.90;;;;;;4997928;28;20188;-82
2022/07/07 04:18:14;;;;;;;3.22;2.60;;;14.00;99.90;;;;;;5013661;28;20234;-81
2022/07/07 04:20:40;;;;;;;4.97;3.03;;;14.10;99.90;;;;;;5031341;28;20716;-83
2022/07/07 04:23:05;;;;;;;5.20;3.80;;;14.20;99.90;;;;;;5030737;28;20712;-82
2022/07/07 04:25:31;;;;;;;3.60;2.97;;;14.30;99.90;;;;;;5030960;28;20199;-82
2022/07/07 04:27:57;;;;;;;5.95;3.22;;;14.40;99.90;;;;;;5037203;28;20250;-82
2022/07/07 04:30:22;;;;;;;4.00;3.10;;;14.60;99.90;;;;;;5050596;28;20184;-81
2022/07/07 04:32:48;;;;;;;7.53;3.17;;;14.60;99.90;;;;;;5025957;28;20184;-82
2022/07/07 04:35:14;;;;;;;3.47;2.60;;;14.70;99.90;;;;;;5051211;28;20188;-81
2022/07/07 04:37:40;;;;;;;4.55;2.72;;;14.70;99.90;;;;;;5024485;28;20290;-82
2022/07/07 04:40:06;;;;;;;4.45;3.08;;;14.70;99.90;;;;;;5044895;28;20256;-82
2022/07/07 04:42:32;;;;;;;4.00;2.90;;;14.70;99.90;;;;;;5050772;28;20188;-81
2022/07/07 04:44:57;;;;;;;4.20;3.28;;;14.70;99.90;;;;;;5032423;28;20726;-81
2022/07/07 04:47:23;;;;;;;6.68;3.63;;;14.70;99.90;;;;;;5049237;28;20246;-81
2022/07/07 04:49:51;;;;;;;5.47;3.83;;;14.70;99.90;;;;;;5033124;28;20184;-81
2022/07/07 04:52:17;;;;;;;6.22;3.28;;;14.80;99.90;;;;;;5050553;28;20180;-81
2022/07/07 04:54:42;;;;;;;4.95;3.42;;;14.70;99.90;;;;;;5032635;28;20195;-82
2022/07/07 04:57:08;;;;;;;3.90;3.10;;;14.80;99.90;;;;;;5035651;28;20180;-82
2022/07/07 04:59:33;;;;;;;4.43;2.60;;;14.80;99.90;;;;;;5055108;28;20675;-83
2022/07/07 05:01:59;;;;;;;4.80;3.47;;;14.80;99.90;;;;;;5037547;28;20219;-81
2022/07/07 05:04:25;;;;;;;7.40;3.05;;;14.80;99.90;;;;;;5036778;28;20183;-81
2022/07/07 05:06:51;;;;;;;3.75;2.65;;;;;;;;;;5037497;28;20200;-83
2022/07/07 05:09:16;;;;;;;3.92;2.90;;;;;;;;;;5054221;28;20191;-83
2022/07/07 05:11:42;;;;;;;3.63;2.90;;;;;;;;;;5018176;28;20265;-84
2022/07/07 05:14:08;;;;;;;7.72;5.55;;;;;;;;;;5036067;28;20650;-83
2022/07/07 05:16:34;;;;;;;4.82;3.95;;;;;;;;;;5035481;28;20189;-83
2022/07/07 05:19:00;;;;;;;6.35;4.68;;;;;;;;;;5018047;28;20212;-84
2022/07/07 05:21:26;;;;;;;2.90;2.60;;;;;;;;;;5035462;28;20243;-87
2022/07/07 05:23:53;;;;;;;4.80;2.63;;;;;;;;;;5020747;28;20231;-83
2022/07/07 05:26:19;;;;;;;5.63;2.42;;;;;;;;;;5036529;28;20546;-84
2022/07/07 05:28:45;;;;;;;3.40;2.72;;;;;;;;;;5021655;28;20192;-85
2022/07/07 05:31:13;;;;;;;4.05;2.83;;;15.50;99.90;;;;;;5019827;28;20230;-84
2022/07/07 05:33:39;;;;;;;3.60;2.70;;;15.60;99.90;;;;;;5035155;28;20188;-84
2022/07/07 05:36:05;;;;;;;4.80;2.88;;;15.40;99.90;;;;;;5017938;28;20275;-83
2022/07/07 05:38:32;;;;;;;3.85;2.45;;;15.40;99.90;;;;;;5033069;28;20297;-85
2022/07/07 05:40:58;;;;;;;4.00;3.28;;;15.40;99.90;;;;;;5034383;28;20184;-84
2022/07/07 05:43:23;;;;;;;6.63;3.88;;;15.10;99.90;;;;;;5034531;28;20433;-84
2022/07/07 05:45:49;;;;;;;5.38;3.40;;;15.50;99.90;;;;;;5035107;28;20177;-85
2022/07/07 05:48:15;;;;;;;7.63;4.15;;;;;;;;;;5035099;28;20181;-84
2022/07/07 05:50:41;;;;;;;6.82;3.80;;;15.50;99.90;;;;;;5033666;28;20716;-84
2022/07/07 05:53:06;;;;;;;4.60;3.33;;;15.80;99.90;;;;;;5034610;28;20176;-84
2022/07/07 05:55:32;;;;;;;5.25;3.95;;;15.30;99.90;;;;;;5034847;28;20184;-85
2022/07/07 05:57:58;;;;;;;5.95;4.18;;;;;;;;;;5033376;28;20212;-84
2022/07/07 06:00:24;;;;;;;5.85;4.22;;;;;;;;;;5034614;28;20185;-83
2022/07/07 06:02:51;;;;;;;7.97;4.55;;;;;;;;;;5031419;28;20638;-84
2022/07/07 06:05:17;;;;;;;7.07;4.10;;;;;;;;;;5032377;28;21212;-84
2022/07/07 06:07:43;;;;;;;7.55;3.97;;;15.90;99.90;;;;;;5029880;28;20177;-85
2022/07/07 06:10:14;;;;;;;6.95;4.10;;;;;;;;;;5033203;28;20180;-84
2022/07/07 06:12:40;;;;;;;6.10;3.97;;;16.00;99.90;;;;;;5032861;28;20164;-84
2022/07/07 06:15:07;;;;;;;4.93;3.10;;;16.30;99.90;;;;;;5015397;28;20227;-84
2022/07/07 06:17:33;;;;;;;6.15;3.70;;;16.00;99.90;;;;;;5032592;28;20223;-86
2022/07/07 06:19:59;;;;;;;7.80;4.32;;;16.00;99.90;;;;;;5032726;28;20244;-85
2022/07/07 06:22:26;;;;;;;10.80;4.65;;;;;;;;;;5033963;28;20232;-85
2022/07/07 06:24:52;;;;;;;5.55;3.80;;;16.00;99.90;;;;;;5043344;28;20252;-84
2022/07/07 06:27:18;;;;;;;4.93;3.90;;;;;;;;;;5024397;28;20268;-85
2022/07/07 06:29:44;;;;;;;3.72;2.70;;;;;;;;;;5021880;28;20276;-84
2022/07/07 06:32:10;;;;;;;3.70;2.67;;;16.50;99.90;;;;;;5029377;28;20216;-84
2022/07/07 06:34:36;;;;;;;5.97;3.22;;;;;;;;;;5053928;28;20628;-85
2022/07/07 06:37:02;;;;;;;5.40;3.50;;;17.10;99.90;;;;;;5054273;28;20179;-84
2022/07/07 06:39:29;;;;;;;5.10;3.60;;;;;;;;;;5054137;28;20215;-86
2022/07/07 06:41:55;;;;;;;6.28;3.10;;;;;;;;;;5053524;28;20191;-85
2022/07/07 06:44:21;;;;;;;4.28;2.88;;;;;;;;;;5053927;28;20186;-84
2022/07/07 06:46:47;;;;;;;8.40;3.40;;;17.10;99.90;;;;;;5053561;28;20290;-84
2022/07/07 06:49:12;;;;;;;4.68;2.88;;;;;;;;;;5053839;28;20274;-85
2022/07/07 06:51:39;;;;;;;5.13;2.63;;;;;;;;;;5036253;28;20176;-84
2022/07/07 06:54:05;;;;;;;5.03;2.83;;;;;;;;;;5036092;28;20235;-84
2022/07/07 06:56:30;;;;;;;3.83;2.88;;;17.10;99.90;;;;;;5053955;28;20208;-85
2022/07/07 06:58:56;;;;;;;3.20;2.53;;;;;;;;;;5053635;28;20258;-84
2022/07/07 07:01:22;;;;;;;3.03;2.45;;;;;;;;;;5053805;28;20330;-84
2022/07/07 07:03:48;;;;;;;4.82;2.88;;;17.30;99.90;;;;;;5053147;28;20168;-83
2022/07/07 07:06:14;;;;;;;3.83;2.28;;;;;;;;;;5053716;28;20190;-83
2022/07/07 07:08:40;;;;;;;2.42;1.83;;;;;;;;;;5051819;28;20600;-85
2022/07/07 07:11:06;;;;;;;2.08;1.50;;;16.80;99.90;;;;;;5051999;28;20283;-82
2022/07/07 07:13:32;;;;;;;2.45;1.70;;;17.60;99.90;;;;;;5053424;28;20688;-83
2022/07/07 07:15:58;;;;;;;1.80;1.10;;;17.70;99.90;;;;;;5053234;28;20180;-82
2022/07/07 07:18:24;;;;;;;1.40;1.20;;;17.80;99.90;;;;;;5053683;28;20290;-83
2022/07/07 07:20:50;;;;;;;1.08;0.95;;;18.00;99.90;;;;;;5034792;28;20204;-83
2022/07/07 07:23:15;;;;;;;1.40;1.00;;;18.20;99.90;;;;;;5053162;28;20223;-82
2022/07/07 07:25:41;;;;;;;3.53;1.30;;;18.30;99.90;;;;;;5035654;28;20633;-85
2022/07/07 07:28:06;;;;;;;0.98;0.95;;;18.30;99.90;;;;;;5053163;28;20234;-85
2022/07/07 07:30:32;;;;;;;1.33;1.13;;;18.30;99.90;;;;;;5053338;28;20683;-83
2022/07/07 07:32:58;;;;;;;1.20;0.90;;;18.20;99.90;;;;;;5052960;28;20184;-83
2022/07/07 07:35:23;;;;;;;1.08;1.02;;;18.00;99.90;;;;;;5053357;28;20199;-83
2022/07/07 07:37:49;;;;;;;1.13;0.93;;;18.10;99.90;;;;;;5035237;28;20180;-83
2022/07/07 07:40:15;;;;;;;1.27;0.90;;;18.20;99.90;;;;;;5052710;28;20544;-83
2022/07/07 07:42:41;;;;;;;3.22;1.02;;;18.30;99.90;;;;;;5053300;28;20633;-84
2022/07/07 07:45:11;;;;;;;0.80;0.70;;;18.20;99.90;;;;;;5052733;28;20176;-83
2022/07/07 07:47:38;;;;;;;0.70;0.70;;;18.30;99.90;;;;;;5053525;28;20187;-83
2022/07/07 07:50:04;;;;;;;0.60;0.60;;;18.40;99.90;;;;;;5052974;28;20176;-83
2022/07/07 07:52:30;;;;;;;0.80;0.70;;;18.40;99.90;;;;;;5053384;28;20188;-83
2022/07/07 07:54:56;;;;;;;2.20;1.27;;;18.40;99.90;;;;;;5052299;28;20249;-83
2022/07/07 07:57:21;;;;;;;0.85;0.82;;;18.50;99.90;;;;;;5052434;28;20211;-83
2022/07/07 07:59:47;;;;;;;0.73;0.70;;;18.60;99.90;;;;;;5017219;28;20656;-84
2022/07/07 08:02:13;;;;;;;0.60;0.52;;;18.70;99.90;;;;;;5049794;28;20203;-84
2022/07/07 08:04:38;;;;;;;0.80;0.75;;;18.60;99.90;;;;;;5035490;28;20265;-83
2022/07/07 08:07:04;;;;;;;1.05;0.82;;;18.60;99.90;;;;;;5052892;28;20195;-84
2022/07/07 08:09:30;;;;;;;0.63;0.63;;;;;;;;;;5052658;28;20179;-83
2022/07/07 08:11:56;;;;;;;1.05;0.90;;;;;;;;;;5053516;28;20187;-83
2022/07/07 08:14:22;;;;;;;0.80;0.55;;;18.60;99.90;;;;;;5052759;28;20530;-83
2022/07/07 08:16:48;;;;;;;0.98;0.93;;;18.60;99.90;;;;;;5044276;28;20176;-83
2022/07/07 08:19:17;;;;;;;1.00;0.90;;;18.60;99.90;;;;;;5052400;28;20249;-82
2022/07/07 08:21:46;;;;;;;0.73;0.73;;;18.60;99.90;;;;;;5052640;28;20183;-82
2022/07/07 08:24:12;;;;;;;0.73;0.63;;;18.70;99.90;;;;;;5052092;28;20257;-83
2022/07/07 08:26:38;;;;;;;1.02;0.70;;;18.80;99.90;;;;;;5052239;28;20179;-83
2022/07/07 08:29:04;;;;;;;1.05;0.80;;;18.90;99.90;;;;;;5052859;28;20215;-82
2022/07/07 08:31:30;;;;;;;0.70;0.70;;;19.00;99.90;;;;;;5054885;28;20652;-83
2022/07/07 08:33:55;;;;;;;2.05;0.82;;;19.10;99.90;;;;;;5038768;28;20685;-83
2022/07/07 08:36:21;;;;;;;0.75;0.50;;;19.20;99.90;;;;;;5032671;28;20183;-85
2022/07/07 08:38:47;;;;;;;1.67;0.85;;;19.30;99.90;;;;;;5050514;28;20283;-82
2022/07/07 08:41:15;;;;;;;1.02;0.70;;;19.30;99.90;;;;;;5051402;28;20564;-84
2022/07/07 08:43:41;;;;;;;0.73;0.70;;;19.30;99.90;;;;;;5049592;28;20593;-83
2022/07/07 08:46:10;;;;;;;0.80;0.80;;;19.40;99.90;;;;;;5036820;28;20180;-84
2022/07/07 08:48:36;;;;;;;1.77;0.65;;;19.40;99.90;;;;;;5056580;28;20204;-83
2022/07/07 08:51:02;;;;;;;0.68;0.68;;;19.40;99.90;;;;;;5056330;28;20237;-83
2022/07/07 08:53:33;;;;;;;0.70;0.70;;;19.50;99.90;;;;;;5039194;28;20700;-83
2022/07/07 08:56:07;;;;;;;0.70;0.65;;;19.50;99.90;;;;;;5038745;28;20578;-83
2022/07/07 08:58:35;;;;;;;4.10;0.80;;;19.50;99.90;;;;;;5056390;28;20641;-84
2022/07/07 09:01:02;;;;;;;0.63;0.63;;;19.50;99.90;;;;;;5056446;28;20171;-84
2022/07/07 09:03:28;;;;;;;3.13;0.80;;;;;;;;;;5037943;28;20176;-84
2022/07/07 09:05:55;;;;;;;1.30;0.82;;;19.70;99.90;;;;;;5055544;28;20697;-87
2022/07/07 09:08:22;;;;;;;1.05;0.93;;;20.00;99.90;;;;;;5055334;28;20233;-84
2022/07/07 09:10:48;;;;;;;1.33;0.95;;;20.40;99.90;;;;;;5056771;28;20176;-82
2022/07/07 09:13:23;;;;;;;0.88;0.80;;;20.60;99.90;;;;;;5056346;28;20206;-83
2022/07/07 09:15:50;;;;;;;2.25;1.10;;;20.60;99.90;;;;;;5056233;28;20632;-84
2022/07/07 09:18:28;;;;;;;0.73;0.70;;;20.50;99.90;;;;;;5055021;28;20207;-83
2022/07/07 09:20:54;;;;;;;1.00;0.77;;;20.30;99.90;;;;;;5056322;28;20198;-83
2022/07/07 09:23:20;;;;;;;0.50;0.50;;;20.20;99.90;;;;;;5043486;28;20231;-83
2022/07/07 09:25:46;;;;;;;0.40;0.40;;;20.20;99.90;;;;;;5053814;28;20184;-83
2022/07/07 09:28:11;;;;;;;0.77;0.60;;;20.20;98.70;;;;;;5067444;28;20187;-83
2022/07/07 09:30:46;;;;;;;0.40;0.40;;;20.10;97.60;;;;;;5067685;28;20199;-83
2022/07/07 09:33:26;;;;;;;0.60;0.40;;;20.20;99.20;;;;;;5072561;28;20164;-84
2022/07/07 09:38:40;;;;;;;2.72;0.52;;;20.20;97.70;;;;;;5075075;28;20226;-84
2022/07/07 09:41:13;;;;;;;0.40;0.40;;;20.20;93.40;;;;;;5076819;28;20184;-84
2022/07/07 09:43:47;;;;;;;0.70;0.65;;;20.30;94.80;;;;;;5079538;28;20202;-87
2022/07/07 09:46:18;;;;;;;1.38;0.60;;;20.50;94.80;;;;;;5080238;28;20170;-85
2022/07/07 09:48:55;;;;;;;1.00;0.90;;;20.60;95.10;;;;;;5079171;28;20179;-83
2022/07/07 09:51:29;;;;;;;1.65;0.57;;;20.70;94.40;;;;;;5076767;28;20192;-83
2022/07/07 09:54:14;;;;;;;0.93;0.63;;;20.60;95.40;;;;;;5056206;28;20167;-84
2022/07/07 09:56:44;;;;;;;0.50;0.50;;;20.50;96.60;;;;;;5077198;28;20164;-83
2022/07/07 09:59:13;;;;;;;0.85;0.50;;;20.20;94.10;;;;;;5062576;28;20191;-84
2022/07/07 10:01:41;;;;;;;0.60;0.60;;;19.80;99.90;;;;;;5079736;28;20175;-83
2022/07/07 10:04:14;;;;;;;0.50;0.50;;;19.80;96.60;;;;;;5069970;28;20266;-84
2022/07/07 10:06:41;;;;;;;0.55;0.55;;;19.70;95.90;;;;;;5039632;28;20593;-84
2022/07/07 10:09:19;;;;;;;0.73;0.45;;;19.70;95.90;;;;;;5056038;28;20279;-83
2022/07/07 10:11:55;;;;;;;0.75;0.75;;;19.60;92.80;;;;;;5054531;28;20254;-84
2022/07/07 10:14:22;;;;;;;1.17;0.63;;;19.60;92.90;;;;;;5053297;28;20199;-83
2022/07/07 10:16:50;;;;;;;0.60;0.60;;;19.60;93.20;;;;;;5054919;28;20267;-83
2022/07/07 10:19:19;;;;;;;0.80;0.68;;;19.70;93.80;;;;;;5053871;28;20196;-84
2022/07/07 10:21:49;;;;;;;0.57;0.52;;;19.70;94.00;;;;;;5052247;28;20179;-85
2022/07/07 10:24:17;;;;;;;0.52;0.52;;;19.80;95.10;;;;;;5052675;28;20227;-85
2022/07/07 10:26:46;;;;;;;1.77;0.80;;;19.80;95.20;;;;;;5045275;28;20547;-85
2022/07/07 10:29:12;;;;;;;0.50;0.40;;;;;;;;;;5051458;28;20180;-83
2022/07/07 10:31:39;;;;;;;0.43;0.43;;;20.00;90.80;;;;;;5054331;28;20419;-83
2022/07/07 10:34:07;;;;;;;0.55;0.47;;;20.10;91.30;;;;;;5036971;28;20431;-83
2022/07/07 10:36:50;;;;;;;1.10;0.65;;;20.10;92.10;;;;;;5052653;28;20217;-83
2022/07/07 10:39:23;;;;;;;1.02;0.50;;;20.20;90.20;;;;;;5050081;28;20202;-84
2022/07/07 10:42:23;;;;;;;0.60;0.50;;;20.30;90.50;;;;;;5054205;28;20183;-84
2022/07/07 10:44:52;;;;;;;1.23;0.65;;;20.40;83.30;;;;;;5054540;28;20171;-84
2022/07/07 10:47:17;;;;;;;0.50;0.50;;;20.30;85.00;;;;;;5054275;28;20200;-84
2022/07/07 10:49:51;;;;;;;1.27;0.95;;;20.50;95.80;;;;;;5054793;28;20214;-82
2022/07/07 10:52:17;;;;;;;1.50;0.43;;;;;;;;;;5052233;28;20171;-82
2022/07/07 10:55:04;;;;;;;0.60;0.60;;;21.00;91.40;;;;;;5054598;28;20558;-83
2022/07/07 10:57:44;;;;;;;1.38;0.93;;;21.00;91.70;;;;;;5053149;28;20188;-84
2022/07/07 11:00:27;;;;;;;0.75;0.60;;;21.50;76.70;;;;;;5051105;28;20283;-84
2022/07/07 11:03:10;;;;;;;0.47;0.40;;;21.60;74.40;;;;;;5050650;28;20702;-84
2022/07/07 11:05:36;;;;;;;0.98;0.82;;;21.60;74.70;;;;;;5053423;28;20202;-85
2022/07/07 11:08:08;;;;;;;0.52;0.50;;;21.40;79.30;;;;;;5054210;28;20180;-84
2022/07/07 11:10:36;;;;;;;0.50;0.50;;;21.30;75.50;;;;;;5052415;28;20180;-84
2022/07/07 11:13:13;;;;;;;1.25;0.40;;;20.90;76.50;;;;;;5035311;28;20194;-84
2022/07/07 11:15:39;;;;;;;0.50;0.50;;;20.60;76.10;;;;;;5052313;28;20164;-83
2022/07/07 11:18:04;;;;;;;2.25;0.63;;;20.40;78.10;;;;;;5052423;28;20226;-83
2022/07/07 11:20:30;;;;;;;2.05;0.75;;;20.20;79.80;;;;;;5033179;28;20184;-84
2022/07/07 11:23:10;;;;;;;1.08;0.68;;;20.10;82.50;;;;;;5051934;28;20219;-84
2022/07/07 11:25:37;;;;;;;0.93;0.65;;;20.00;82.20;;;;;;5053153;28;20179;-84
2022/07/07 11:28:08;;;;;;;0.57;0.50;;;19.90;82.30;;;;;;5034272;28;20176;-83
2022/07/07 11:30:35;;;;;;;0.77;0.77;;;19.90;82.80;;;;;;5052243;28;20187;-83
2022/07/07 11:33:02;;;;;;;0.75;0.68;;;20.00;84.30;;;;;;5024255;28;20172;-83
2022/07/07 11:35:36;;;;;;;0.45;0.45;;;20.00;83.40;;;;;;5053087;28;20712;-83
2022/07/07 11:38:03;;;;;;;3.72;1.23;;;20.00;83.80;;;;;;5054335;28;20167;-85
2022/07/07 11:40:30;;;;;;;0.45;0.45;;;20.00;85.60;;;;;;5052845;28;20176;-83
2022/07/07 11:43:00;;;;;;;0.45;0.45;;;20.10;87.90;;;;;;5054368;28;20267;-84
2022/07/07 11:45:30;;;;;;;0.65;0.55;;;20.20;90.40;;;;;;5050747;28;20271;-83
2022/07/07 11:47:58;;;;;;;0.63;0.63;;;20.20;90.00;;;;;;5053014;28;20207;-84
2022/07/07 11:50:24;;;;;;;2.78;0.63;;;20.30;86.90;;;;;;5052744;28;20184;-85
2022/07/07 11:52:55;;;;;;;0.65;0.65;;;20.30;84.90;;;;;;5052862;28;20531;-84
2022/07/07 11:55:22;;;;;;;0.98;0.70;;;20.40;87.40;;;;;;5053698;28;20233;-83
2022/07/07 11:58:03;;;;;;;1.08;0.65;;;20.50;87.50;;;;;;5052548;28;20179;-84
2022/07/07 12:00:31;;;;;;;0.40;0.40;;;20.70;85.40;;;;;;5052920;28;20164;-84
2022/07/07 12:03:02;;;;;;;1.33;0.60;;;20.80;85.50;;;;;;5053038;28;20258;-84
2022/07/07 12:05:35;;;;;;;1.63;0.60;;;20.90;88.60;;;;;;5055168;28;20164;-84
2022/07/07 12:08:05;;;;;;;1.63;0.65;;;21.00;86.90;;;;;;5034029;28;20180;-84
2022/07/07 12:10:38;;;;;;;0.50;0.50;;;21.00;85.70;;;;;;5052118;28;20167;-83
2022/07/07 12:13:07;;;;;;;0.40;0.40;;;21.00;86.70;;;;;;5052001;28;20160;-83
2022/07/07 12:15:53;;;;;;;1.08;0.70;;;21.00;85.80;;;;;;5052020;28;20275;-84
2022/07/07 12:18:41;;;;;;;3.00;1.60;;;20.90;83.10;;;;;;5034400;28;20199;-83
2022/07/07 12:21:09;;;;;;;1.50;1.00;;;20.80;84.50;;;;;;5051960;28;20176;-83
2022/07/07 12:23:40;;;;;;;1.50;1.10;;;20.80;84.50;;;;;;5049270;28;20231;-84
2022/07/07 12:26:18;;;;;;;1.05;0.70;;;20.80;88.40;;;;;;5033540;28;20187;-83
2022/07/07 12:28:44;;;;;;;1.48;0.70;;;20.90;83.70;;;;;;5051141;28;20178;-83
2022/07/07 12:31:18;;;;;;;0.60;0.60;;;20.80;84.30;;;;;;5051609;28;20534;-83
2022/07/07 12:33:44;;;;;;;0.70;0.70;;;20.80;82.50;;;;;;5049842;28;20230;-84
2022/07/07 12:36:24;;;;;;;0.90;0.90;;;20.70;83.00;;;;;;5051837;28;20184;-82
2022/07/07 12:38:56;;;;;;;2.20;0.68;;;20.80;82.30;;;;;;5052841;28;20650;-84
2022/07/07 12:41:25;;;;;;;1.55;0.60;;;20.90;86.00;;;;;;5052730;28;20172;-86
2022/07/07 12:43:54;;;;;;;0.68;0.57;;;20.90;84.40;;;;;;5034773;28;20542;-82
2022/07/07 12:46:21;;;;;;;0.50;0.50;;;20.80;88.70;;;;;;5053660;28;20164;-83
2022/07/07 12:48:51;;;;;;;0.70;0.70;;;20.90;87.50;;;;;;5033820;28;20278;-82
2022/07/07 12:51:25;;;;;;;2.58;0.70;;;20.90;89.00;;;;;;5053278;28;20168;-81
2022/07/07 12:53:51;;;;;;;0.60;0.60;;;21.00;89.50;;;;;;5047944;28;20704;-82
2022/07/07 12:56:16;;;;;;;0.60;0.60;;;21.00;89.50;;;;;;5039507;28;20176;-84
2022/07/07 12:58:55;;;;;;;0.70;0.70;;;21.00;88.60;;;;;;5022852;28;20561;-85
2022/07/07 13:01:23;;;;;;;0.70;0.70;;;21.00;85.30;;;;;;5038139;28;20675;-84
2022/07/07 13:03:52;;;;;;;0.70;0.70;;;20.90;85.20;;;;;;5034839;28;20172;-84